createdAt,value
2023-01-19T00:01:35.411Z,99007.84
2023-01-19T00:04:05.786Z,99023.16
2023-01-19T00:06:35.852Z,99021.56
2023-01-19T00:09:06.449Z,98998.16
2023-01-19T00:11:39.295Z,99006.22
2023-01-19T00:14:09.360Z,99008.13
2023-01-19T00:16:39.335Z,99000.56
2023-01-19T00:19:09.365Z,99015.41
2023-01-19T00:21:39.381Z,99003.44
2023-01-19T00:24:09.873Z,98998.53
2023-01-19T00:26:42.998Z,98999.66
2023-01-19T00:29:13.847Z,99006.59
2023-01-19T00:31:44.693Z,99009.75
2023-01-19T00:34:14.731Z,99006.28
2023-01-19T00:36:45.388Z,98993.66
2023-01-19T00:39:15.389Z,98976.56
2023-01-19T00:42:00.301Z,98993.50
2023-01-19T00:44:30.399Z,99011.03
2023-01-19T00:47:01.222Z,98996.03
2023-01-19T00:49:31.293Z,98985.13
2023-01-19T00:52:01.374Z,98953.88
2023-01-19T00:54:31.393Z,98986.25
2023-01-19T00:57:04.457Z,99000.19
2023-01-19T00:59:34.575Z,99015.97
2023-01-19T01:02:04.738Z,99011.72
2023-01-19T01:04:35.111Z,98996.50
2023-01-19T01:07:05.189Z,99008.22
2023-01-19T01:09:35.344Z,99010.28
2023-01-19T01:12:08.206Z,98999.53
2023-01-19T01:14:38.549Z,98991.81
2023-01-19T01:17:11.484Z,98990.38
2023-01-19T01:19:41.731Z,98980.44
2023-01-19T01:22:12.795Z,98998.13
2023-01-19T01:24:42.617Z,99015.84
2023-01-19T01:27:15.265Z,99008.38
2023-01-19T01:29:46.652Z,99011.56
2023-01-19T01:32:16.809Z,99017.41
2023-01-19T01:34:46.842Z,99013.16
2023-01-19T01:37:16.794Z,99016.59
2023-01-19T01:39:46.776Z,99006.50
2023-01-19T01:42:22.944Z,98998.75
2023-01-19T01:44:55.425Z,98998.75
2023-01-19T01:47:33.864Z,98981.06
2023-01-19T01:50:10.983Z,98968.25
2023-01-19T01:53:06.459Z,98969.94
2023-01-19T01:55:39.908Z,98972.19
2023-01-19T01:58:14.368Z,98967.44
2023-01-19T02:00:56.822Z,98977.25
2023-01-19T02:03:28.476Z,98940.09
2023-01-19T02:06:03.215Z,98971.38
2023-01-19T02:08:50.764Z,98981.47
2023-01-19T02:11:33.208Z,98968.53
2023-01-19T02:14:07.451Z,98975.00
2023-01-19T02:16:37.946Z,98969.94
2023-01-19T02:19:10.348Z,98971.88
2023-01-19T02:21:49.556Z,98965.88
2023-01-19T02:24:22.724Z,98947.69
2023-01-19T02:26:54.134Z,98958.91
2023-01-19T02:29:26.631Z,98944.38
2023-01-19T02:31:57.536Z,98946.91
2023-01-19T02:34:27.588Z,98937.94
2023-01-19T02:36:59.529Z,98925.88
2023-01-19T02:39:37.478Z,98934.59
2023-01-19T02:42:12.748Z,98946.75
2023-01-19T02:44:46.418Z,98952.13
2023-01-19T02:47:17.013Z,98938.38
2023-01-19T02:49:47.651Z,98948.47
2023-01-19T02:52:20.696Z,98966.81
2023-01-19T02:55:05.855Z,98969.00
2023-01-19T02:57:50.790Z,98975.66
2023-01-19T03:00:33.762Z,98975.81
2023-01-19T03:03:21.215Z,98969.19
2023-01-19T03:06:07.603Z,98978.50
2023-01-19T03:08:47.984Z,98972.47
2023-01-19T03:11:20.744Z,98970.59
2023-01-19T03:13:55.521Z,98967.44
2023-01-19T03:16:33.103Z,98944.81
2023-01-19T03:19:09.448Z,98971.53
2023-01-19T03:21:42.961Z,98972.34
2023-01-19T03:24:15.601Z,98991.63
2023-01-19T03:26:52.301Z,99001.22
2023-01-19T03:29:25.468Z,98999.03
2023-01-19T03:31:56.959Z,98997.44
2023-01-19T03:34:28.655Z,98984.81
2023-01-19T03:37:02.820Z,98965.22
2023-01-19T03:39:33.300Z,98953.06
2023-01-19T03:42:11.377Z,98933.94
2023-01-19T03:44:44.190Z,98913.88
2023-01-19T03:47:16.382Z,98910.28
2023-01-19T03:49:49.157Z,98917.22
2023-01-19T03:52:19.426Z,98919.91
2023-01-19T03:54:49.800Z,98935.38
2023-01-19T03:57:22.461Z,98948.47
2023-01-19T03:59:53.563Z,98948.66
2023-01-19T04:02:23.306Z,98964.75
2023-01-19T04:04:53.608Z,98962.38
2023-01-19T04:07:23.566Z,98980.88
2023-01-19T04:09:53.645Z,98989.53
2023-01-19T04:12:26.268Z,99010.25
2023-01-19T04:14:56.339Z,99006.59
2023-01-19T04:17:26.373Z,98994.28
2023-01-19T04:19:56.477Z,99014.16
2023-01-19T04:22:26.539Z,99026.50
2023-01-19T04:24:56.620Z,99015.91
2023-01-19T04:27:29.275Z,99015.13
2023-01-19T04:30:00.496Z,99033.63
2023-01-19T04:32:30.806Z,99027.47
2023-01-19T04:35:01.035Z,99035.03
2023-01-19T04:37:31.141Z,99017.00
2023-01-19T04:40:01.190Z,99008.94
2023-01-19T04:42:33.847Z,99033.28
2023-01-19T04:45:04.054Z,99039.75
2023-01-19T04:47:34.047Z,99024.59
2023-01-19T04:50:05.855Z,99024.44
2023-01-19T04:52:37.467Z,99023.44
2023-01-19T04:55:08.922Z,99040.06
2023-01-19T04:57:41.553Z,99047.63
2023-01-19T05:00:13.340Z,99037.06
2023-01-19T05:02:45.359Z,99028.50
2023-01-19T05:05:15.708Z,99029.00
2023-01-19T05:07:47.101Z,99029.00
2023-01-19T05:10:17.181Z,99005.94
2023-01-19T05:12:49.842Z,99026.47
2023-01-19T05:15:19.959Z,99025.19
2023-01-19T05:17:50.058Z,99047.97
2023-01-19T05:20:20.630Z,99024.53
2023-01-19T05:22:54.783Z,99034.81
2023-01-19T05:25:25.014Z,99067.03
2023-01-19T05:27:58.079Z,99070.53
2023-01-19T05:30:28.263Z,99082.50
2023-01-19T05:32:58.766Z,99094.03
2023-01-19T05:35:35.651Z,99096.41
2023-01-19T05:38:06.411Z,99097.50
2023-01-19T05:40:36.389Z,99110.94
2023-01-19T05:43:09.068Z,99108.75
2023-01-19T05:45:39.114Z,99110.00
2023-01-19T05:48:10.295Z,99114.41
2023-01-19T05:50:40.396Z,99111.88
2023-01-19T05:53:10.414Z,99106.22
2023-01-19T05:55:40.486Z,99122.03
2023-01-19T05:58:13.116Z,99120.09
2023-01-19T06:00:43.408Z,99121.53
2023-01-19T06:03:13.458Z,99110.00
2023-01-19T06:05:43.517Z,99109.38
2023-01-19T06:08:13.597Z,99067.94
2023-01-19T06:10:43.803Z,99082.06
2023-01-19T06:13:16.483Z,99063.09
2023-01-19T06:15:47.465Z,99064.84
2023-01-19T06:18:17.809Z,99062.81
2023-01-19T06:20:47.848Z,99060.28
2023-01-19T06:23:17.924Z,99057.00
2023-01-19T06:25:48.066Z,99072.00
2023-01-19T06:28:20.775Z,99072.00
2023-01-19T06:30:52.680Z,99068.03
2023-01-19T06:33:23.131Z,99077.03
2023-01-19T06:35:53.935Z,99068.50
2023-01-19T06:38:24.025Z,99083.69
2023-01-19T06:40:58.796Z,99096.00
2023-01-19T06:43:31.660Z,99106.75
2023-01-19T06:46:02.456Z,99129.94
2023-01-19T06:48:32.647Z,99138.31
2023-01-19T06:51:02.842Z,99136.72
2023-01-19T06:53:32.877Z,99157.22
2023-01-19T06:56:04.764Z,99163.69
2023-01-19T06:58:37.882Z,99171.13
2023-01-19T07:01:09.338Z,99159.91
2023-01-19T07:03:40.383Z,99156.38
2023-01-19T07:06:10.510Z,99151.78
2023-01-19T07:08:41.737Z,99154.16
2023-01-19T07:11:23.118Z,99145.59
2023-01-19T07:14:01.175Z,99160.78
2023-01-19T07:16:31.284Z,99166.81
2023-01-19T07:19:01.457Z,99133.63
2023-01-19T07:21:31.602Z,99132.53
2023-01-19T07:24:01.687Z,99138.31
2023-01-19T07:26:31.698Z,99137.38
2023-01-19T07:29:04.333Z,99133.75
2023-01-19T07:31:34.597Z,99110.56
2023-01-19T07:34:05.631Z,99115.94
2023-01-19T07:36:36.004Z,99129.97
2023-01-19T07:39:06.333Z,99134.75
2023-01-19T07:41:36.299Z,99127.94
2023-01-19T07:44:13.212Z,99134.91
2023-01-19T07:46:43.513Z,99135.91
2023-01-19T07:49:13.594Z,99114.41
2023-01-19T07:51:43.828Z,99091.31
2023-01-19T07:54:13.981Z,99107.78
2023-01-19T07:56:44.300Z,99114.09
2023-01-19T07:59:17.881Z,99114.91
2023-01-19T08:01:48.035Z,99131.19
2023-01-19T08:04:19.213Z,99133.72
2023-01-19T08:06:50.091Z,99135.31
2023-01-19T08:09:20.912Z,99123.94
2023-01-19T08:11:50.943Z,99132.94
2023-01-19T08:14:23.621Z,99156.97
2023-01-19T08:16:53.607Z,99175.16
2023-01-19T08:19:23.855Z,99179.91
2023-01-19T08:21:53.862Z,99163.63
2023-01-19T08:24:28.637Z,99167.13
2023-01-19T08:27:02.582Z,99163.19
2023-01-19T08:29:35.384Z,99162.38
2023-01-19T08:32:06.126Z,99167.13
2023-01-19T08:34:36.457Z,99163.19
2023-01-19T08:37:06.571Z,99168.41
2023-01-19T08:39:36.791Z,99171.72
2023-01-19T08:42:06.813Z,99172.38
2023-01-19T08:44:49.631Z,99163.03
2023-01-19T08:47:27.162Z,99150.06
2023-01-19T08:49:57.235Z,99154.78
2023-01-19T08:52:29.492Z,99166.63
2023-01-19T08:55:00.021Z,99169.34
2023-01-19T08:57:30.760Z,99166.34
2023-01-19T09:00:04.616Z,99168.22
2023-01-19T09:02:35.018Z,99191.94
2023-01-19T09:05:05.534Z,99187.38
2023-01-19T09:07:35.811Z,99196.72
2023-01-19T09:10:06.481Z,99205.25
2023-01-19T09:12:36.832Z,99212.22
2023-01-19T09:15:12.493Z,99199.72
2023-01-19T09:17:42.972Z,99209.53
2023-01-19T09:20:14.148Z,99231.22
2023-01-19T09:22:43.828Z,99237.22
2023-01-19T09:25:13.830Z,99230.13
2023-01-19T09:27:43.899Z,99232.66
2023-01-19T09:30:17.331Z,99216.81
2023-01-19T09:32:48.041Z,99220.28
2023-01-19T09:35:18.237Z,99222.66
2023-01-19T09:37:50.098Z,99217.25
2023-01-19T09:40:21.943Z,99205.38
2023-01-19T09:42:57.171Z,99168.50
2023-01-19T09:45:37.907Z,99190.19
2023-01-19T09:48:16.530Z,99184.66
2023-01-19T09:50:48.581Z,99187.78
2023-01-19T09:53:24.785Z,99200.28
2023-01-19T09:55:54.793Z,99211.97
2023-01-19T09:58:26.770Z,99184.13
2023-01-19T10:01:08.436Z,99201.94
2023-01-19T10:03:43.675Z,99165.06
2023-01-19T10:06:17.556Z,99179.38
2023-01-19T10:08:54.714Z,99160.66
2023-01-19T10:11:51.259Z,99161.75
2023-01-19T10:14:29.270Z,99170.16
2023-01-19T10:17:15.126Z,99167.41
2023-01-19T10:19:50.962Z,99179.31
2023-01-19T10:22:24.422Z,99171.13
2023-01-19T10:24:58.811Z,99191.88
2023-01-19T10:27:34.339Z,99192.50
2023-01-19T10:30:04.967Z,99204.47
2023-01-19T10:32:39.830Z,99198.72
2023-01-19T10:35:23.554Z,99211.56
2023-01-19T10:37:56.238Z,99223.41
2023-01-19T10:40:35.074Z,99219.06
2023-01-19T10:43:25.126Z,99222.50
2023-01-19T10:45:55.434Z,99212.81
2023-01-19T10:48:28.275Z,99228.69
2023-01-19T10:51:06.578Z,99236.91
2023-01-19T10:53:40.477Z,99246.78
2023-01-19T10:56:20.351Z,99238.81
2023-01-19T10:58:50.478Z,99243.59
2023-01-19T11:01:24.004Z,99246.66
2023-01-19T11:04:05.654Z,99240.59
2023-01-19T11:06:36.486Z,99238.38
2023-01-19T11:09:24.155Z,99246.91
2023-01-19T11:11:56.967Z,99246.91
2023-01-19T11:14:29.194Z,99246.78
2023-01-19T11:17:01.013Z,99238.19
2023-01-19T11:19:36.153Z,99249.19
2023-01-19T11:22:21.916Z,99266.47
2023-01-19T11:24:52.713Z,99264.59
2023-01-19T11:27:23.989Z,99254.97
2023-01-19T11:30:01.875Z,99254.41
2023-01-19T11:32:33.368Z,99296.53
2023-01-19T11:35:27.620Z,99303.84
2023-01-19T11:38:19.015Z,99308.03
2023-01-19T11:40:57.803Z,99313.47
2023-01-19T11:43:43.471Z,99336.53
2023-01-19T11:46:19.665Z,99343.97
2023-01-19T11:48:57.546Z,99336.00
2023-01-19T11:51:33.738Z,99342.75
2023-01-19T11:54:08.827Z,99361.72
2023-01-19T11:56:39.125Z,99379.69
2023-01-19T11:59:15.304Z,99365.97
2023-01-19T12:01:54.823Z,99377.22
2023-01-19T12:04:30.955Z,99388.97
2023-01-19T12:07:10.281Z,99398.94
2023-01-19T12:09:47.465Z,99392.28
2023-01-19T12:12:27.444Z,99423.00
2023-01-19T12:15:03.452Z,99440.28
2023-01-19T12:17:38.076Z,99433.03
2023-01-19T12:20:19.240Z,99427.69
2023-01-19T12:22:55.934Z,99447.53
2023-01-19T12:25:32.252Z,99429.66
2023-01-19T12:28:03.004Z,99414.16
2023-01-19T12:30:33.576Z,99421.91
2023-01-19T12:33:25.473Z,99450.22
2023-01-19T12:36:01.103Z,99454.56
2023-01-19T12:38:44.003Z,99444.25
2023-01-19T12:41:31.534Z,99458.34
2023-01-19T12:44:27.868Z,99452.69
2023-01-19T12:47:04.273Z,99478.63
2023-01-19T12:49:38.303Z,99477.94
2023-01-19T12:52:36.248Z,99466.94
2023-01-19T12:55:22.988Z,99497.06
2023-01-19T12:57:59.843Z,99529.13
2023-01-19T13:00:39.024Z,99535.75
2023-01-19T13:03:44.223Z,99539.03
2023-01-19T13:06:14.437Z,99535.06
2023-01-19T13:09:03.753Z,99548.25
2023-01-19T13:11:36.538Z,99547.50
2023-01-19T13:14:38.795Z,99554.81
2023-01-19T13:17:27.472Z,99572.25
2023-01-19T13:20:14.626Z,99572.69
2023-01-19T13:23:22.620Z,99592.94
2023-01-19T13:25:56.410Z,99602.56
2023-01-19T13:28:35.330Z,99602.81
2023-01-19T13:31:07.150Z,99574.94
2023-01-19T13:33:46.732Z,99607.34
2023-01-19T13:36:23.419Z,99610.19
2023-01-19T13:38:55.154Z,99619.56
2023-01-19T13:41:27.863Z,99638.09
2023-01-19T13:44:04.315Z,99626.16
2023-01-19T13:46:35.024Z,99628.13
2023-01-19T13:49:15.469Z,99622.25
2023-01-19T13:51:45.606Z,99620.88
2023-01-19T13:54:19.438Z,99629.84
2023-01-19T13:56:54.861Z,99635.97
2023-01-19T13:59:27.503Z,99631.94
2023-01-19T14:01:58.336Z,99649.75
2023-01-19T14:04:31.323Z,99645.28
2023-01-19T14:07:05.384Z,99612.47
2023-01-19T14:09:35.464Z,99590.84
2023-01-19T14:12:17.685Z,99615.16
2023-01-19T14:14:50.407Z,99624.53
2023-01-19T14:17:32.365Z,99617.34
2023-01-19T14:20:05.609Z,99613.06
2023-01-19T14:22:43.916Z,99619.81
2023-01-19T14:25:32.498Z,99634.53
2023-01-19T14:28:30.632Z,99660.66
2023-01-19T14:31:05.011Z,99660.91
2023-01-19T14:33:46.282Z,99666.81
2023-01-19T14:36:31.391Z,99671.06
2023-01-19T14:39:03.573Z,99679.91
2023-01-19T14:41:41.022Z,99678.84
2023-01-19T14:44:12.723Z,99682.81
2023-01-19T14:46:49.540Z,99691.19
2023-01-19T14:49:23.560Z,99697.59
2023-01-19T14:51:54.543Z,99702.91
2023-01-19T14:54:32.356Z,99712.53
2023-01-19T14:57:03.066Z,99716.81
2023-01-19T14:59:35.725Z,99723.22
2023-01-19T15:02:08.851Z,99721.34
2023-01-19T15:04:38.977Z,99726.41
2023-01-19T15:07:09.600Z,99739.75
2023-01-19T15:09:40.093Z,99760.03
2023-01-19T15:12:17.176Z,99747.22
2023-01-19T15:14:48.092Z,99751.47
2023-01-19T15:17:25.803Z,99737.59
2023-01-19T15:19:56.951Z,99772.53
2023-01-19T15:22:30.135Z,99774.66
2023-01-19T15:25:00.502Z,99773.06
2023-01-19T15:27:30.661Z,99781.31
2023-01-19T15:30:00.911Z,99780.53
2023-01-19T15:32:33.506Z,99793.31
2023-01-19T15:35:03.705Z,99780.78
2023-01-19T15:37:33.775Z,99805.00
2023-01-19T15:40:03.830Z,99811.72
2023-01-19T15:42:33.843Z,99818.34
2023-01-19T15:45:04.173Z,99820.22
2023-01-19T15:47:36.835Z,99835.41
2023-01-19T15:50:09.783Z,99830.09
2023-01-19T15:52:39.831Z,99854.13
2023-01-19T15:55:16.062Z,99853.88
2023-01-19T15:57:46.513Z,99877.88
2023-01-19T16:00:18.021Z,99882.69
2023-01-19T16:02:52.200Z,99894.69
2023-01-19T16:05:25.991Z,99883.50
2023-01-19T16:08:02.000Z,99888.56
2023-01-19T16:10:32.179Z,99897.63
2023-01-19T16:13:02.353Z,99890.97
2023-01-19T16:15:32.529Z,99889.63
2023-01-19T16:18:05.341Z,99888.78
2023-01-19T16:20:35.550Z,99886.41
2023-01-19T16:23:21.359Z,99882.09
2023-01-19T16:25:59.148Z,99908.72
2023-01-19T16:28:30.261Z,99902.88
2023-01-19T16:31:00.691Z,99910.34
2023-01-19T16:33:33.641Z,99912.97
2023-01-19T16:36:20.907Z,99921.53
2023-01-19T16:38:51.074Z,99933.28
2023-01-19T16:41:21.291Z,99931.41
2023-01-19T16:43:58.737Z,99941.31
2023-01-19T16:46:34.082Z,99942.31
2023-01-19T16:49:08.756Z,99943.34
2023-01-19T16:51:39.002Z,99946.81
2023-01-19T16:54:10.857Z,99960.69
2023-01-19T16:56:41.596Z,99965.47
2023-01-19T16:59:14.796Z,99969.41
2023-01-19T17:01:46.044Z,99966.22
2023-01-19T17:04:19.874Z,99968.63
2023-01-19T17:06:50.201Z,99970.22
2023-01-19T17:09:21.126Z,99971.53
2023-01-19T17:11:51.241Z,99953.84
2023-01-19T17:14:22.857Z,99956.72
2023-01-19T17:16:53.212Z,99979.91
2023-01-19T17:19:26.955Z,99986.56
2023-01-19T17:21:56.961Z,99995.38
2023-01-19T17:24:27.088Z,99993.22
2023-01-19T17:26:57.155Z,99975.72
2023-01-19T17:29:27.478Z,99986.69
2023-01-19T17:31:57.542Z,99986.38
2023-01-19T17:34:30.171Z,99986.94
2023-01-19T17:37:03.364Z,99990.66
2023-01-19T17:39:33.583Z,99992.00
2023-01-19T17:42:03.777Z,100001.91
2023-01-19T17:44:33.807Z,100002.47
2023-01-19T17:47:04.001Z,100005.19
2023-01-19T17:49:37.278Z,100008.13
2023-01-19T17:52:08.054Z,99999.88
2023-01-19T17:54:38.483Z,100003.09
2023-01-19T17:57:08.947Z,100003.34
2023-01-19T17:59:41.162Z,99992.69
2023-01-19T18:02:12.604Z,100010.25
2023-01-19T18:04:45.634Z,100011.09
2023-01-19T18:07:15.737Z,100017.75
2023-01-19T18:09:45.746Z,100015.88
2023-01-19T18:12:16.149Z,100015.63
2023-01-19T18:14:46.209Z,99967.00
2023-01-19T18:17:16.402Z,100019.41
2023-01-19T18:19:49.270Z,100009.44
2023-01-19T18:22:19.656Z,100019.78
2023-01-19T18:24:49.777Z,100018.69
2023-01-19T18:27:22.021Z,100023.84
2023-01-19T18:29:52.093Z,100029.75
2023-01-19T18:32:22.150Z,100035.44
2023-01-19T18:34:54.803Z,100034.13
2023-01-19T18:37:24.819Z,100028.03
2023-01-19T18:39:59.856Z,100028.84
2023-01-19T18:42:29.973Z,99978.34
2023-01-19T18:45:00.701Z,100028.09
2023-01-19T18:47:30.822Z,100035.84
2023-01-19T18:50:03.518Z,100033.66
2023-01-19T18:52:34.075Z,100037.38
2023-01-19T18:55:05.023Z,100034.19
2023-01-19T18:57:34.829Z,100034.72
2023-01-19T19:00:05.740Z,100028.00
2023-01-19T19:02:35.915Z,100038.91
2023-01-19T19:05:09.644Z,100032.75
2023-01-19T19:07:39.794Z,100026.91
2023-01-19T19:10:11.611Z,100026.34
2023-01-19T19:12:41.879Z,100035.38
2023-01-19T19:15:14.090Z,100046.31
2023-01-19T19:17:44.199Z,100052.16
2023-01-19T19:20:17.499Z,100064.47
2023-01-19T19:22:47.621Z,100069.00
2023-01-19T19:25:18.041Z,100069.00
2023-01-19T19:27:48.401Z,100053.78
2023-01-19T19:30:19.903Z,100054.00
2023-01-19T19:32:56.494Z,100054.22
2023-01-19T19:35:29.669Z,100056.84
2023-01-19T19:38:00.213Z,100077.31
2023-01-19T19:40:31.090Z,100078.13
2023-01-19T19:43:01.056Z,100073.50
2023-01-19T19:45:31.051Z,100072.84
2023-01-19T19:48:01.152Z,100070.84
2023-01-19T19:50:33.958Z,100070.09
2023-01-19T19:53:04.023Z,100073.72
2023-01-19T19:55:34.387Z,100077.50
2023-01-19T19:58:04.556Z,100078.34
2023-01-19T20:00:34.680Z,100072.28
2023-01-19T20:03:05.124Z,100073.81
2023-01-19T20:05:38.764Z,100067.69
2023-01-19T20:08:09.040Z,100036.16
2023-01-19T20:10:39.369Z,100065.16
2023-01-19T20:13:10.478Z,100075.19
2023-01-19T20:15:40.810Z,100076.50
2023-01-19T20:18:11.204Z,100065.28
2023-01-19T20:20:45.223Z,100061.03
2023-01-19T20:23:16.500Z,100062.09
2023-01-19T20:25:46.704Z,100061.50
2023-01-19T20:28:16.927Z,100051.38
2023-01-19T20:30:47.113Z,100053.66
2023-01-19T20:33:17.443Z,100062.38
2023-01-19T20:35:52.153Z,100064.28
2023-01-19T20:38:22.297Z,100070.19
2023-01-19T20:40:52.455Z,100074.44
2023-01-19T20:43:22.615Z,100068.34
2023-01-19T20:45:52.871Z,100061.91
2023-01-19T20:48:23.236Z,100054.63
2023-01-19T20:51:00.917Z,100038.06
2023-01-19T20:53:32.345Z,100023.94
2023-01-19T20:56:06.234Z,100034.28
2023-01-19T20:58:36.617Z,100025.34
2023-01-19T21:01:13.914Z,100031.41
2023-01-19T21:03:44.263Z,100034.69
2023-01-19T21:06:18.261Z,100028.38
2023-01-19T21:08:49.921Z,100018.31
2023-01-19T21:11:23.967Z,99993.97
2023-01-19T21:13:56.339Z,100015.75
2023-01-19T21:16:27.883Z,100013.94
2023-01-19T21:18:58.645Z,100013.63
2023-01-19T21:21:32.064Z,100011.91
2023-01-19T21:24:03.989Z,100032.81
2023-01-19T21:26:34.394Z,100037.66
2023-01-19T21:29:05.842Z,100022.22
2023-01-19T21:31:36.011Z,100016.84
2023-01-19T21:34:06.115Z,99975.34
2023-01-19T21:36:39.314Z,100011.22
2023-01-19T21:39:09.521Z,100009.97
2023-01-19T21:41:43.038Z,99994.13
2023-01-19T21:44:15.312Z,99997.25
2023-01-19T21:46:45.620Z,100006.72
2023-01-19T21:49:20.950Z,100006.56
2023-01-19T21:51:54.302Z,99980.84
2023-01-19T21:54:24.328Z,100022.06
2023-01-19T21:56:54.469Z,100030.66
2023-01-19T21:59:24.669Z,100029.53
2023-01-19T22:01:54.938Z,100031.09
2023-01-19T22:04:25.170Z,100012.00
2023-01-19T22:06:58.018Z,100007.16
2023-01-19T22:09:28.237Z,99992.75
2023-01-19T22:11:58.554Z,99991.56
2023-01-19T22:14:28.739Z,99973.91
2023-01-19T22:16:59.372Z,99973.25
2023-01-19T22:19:29.623Z,99980.84
2023-01-19T22:22:02.289Z,99987.78
2023-01-19T22:24:32.319Z,99977.03
2023-01-19T22:27:02.358Z,99984.47
2023-01-19T22:29:32.572Z,99989.44
2023-01-19T22:32:03.112Z,99985.63
2023-01-19T22:34:33.504Z,99982.69
2023-01-19T22:37:07.013Z,99990.66
2023-01-19T22:39:37.624Z,99991.69
2023-01-19T22:42:07.715Z,99976.59
2023-01-19T22:44:38.490Z,99976.78
2023-01-19T22:47:08.974Z,99967.03
2023-01-19T22:49:39.368Z,99967.63
2023-01-19T22:52:12.648Z,99967.63
2023-01-19T22:54:43.314Z,99961.28
2023-01-19T22:57:14.119Z,99955.88
2023-01-19T22:59:44.121Z,99965.19
2023-01-19T23:02:14.222Z,99966.16
2023-01-19T23:04:44.379Z,99967.25
2023-01-19T23:07:16.987Z,99961.94
2023-01-19T23:09:47.818Z,99967.38
2023-01-19T23:12:17.902Z,99965.56
2023-01-19T23:14:48.158Z,99950.22
2023-01-19T23:17:18.238Z,99946.63
2023-01-19T23:19:48.742Z,99950.13
2023-01-19T23:22:21.566Z,99959.72
2023-01-19T23:24:51.569Z,99947.41
2023-01-19T23:27:21.861Z,99941.59
2023-01-19T23:29:51.994Z,99957.78
2023-01-19T23:32:22.367Z,99956.16
2023-01-19T23:34:52.451Z,99943.06
2023-01-19T23:37:25.981Z,99953.22
2023-01-19T23:39:56.072Z,99947.53
2023-01-19T23:42:26.247Z,99940.25
2023-01-19T23:44:56.249Z,99938.94
2023-01-19T23:47:26.361Z,99940.56
2023-01-19T23:49:56.497Z,99911.22
2023-01-19T23:52:29.218Z,99933.88
2023-01-19T23:54:59.228Z,99888.97
2023-01-19T23:57:29.693Z,99930.78
